Malartic, Canada
Current Conditions -  °F | °C
As of 9:00 PM on Tuesday 21 Oct 2014 (Local Time) from CYVO Reporting Station
Clear Clear  
Wind Chill: 26°   Ceiling: Unl
Heat Index: 34°   Visibility: 15mi
Dew Point: 28°   Wind: 9mph
Humidity: 81%   Direction: 20°NNE
Pressure: 30.29"   Gusts: NA
Location:  48.13°N, 78.12°W
Report Text: CYVO 220100Z 02008KT 15SM SKC 01/M02 A3029 RMK SLP277
Loading
Personal Weather Stations






























Interactive Weather Map
Tropical Storm Tracking
New forecast layout! Learn more

10-Day Weather Forecast

Advertisements
Track Severe Weather on mobile